Impacts METAR Board INFO
IDs:

KLGA - New York/La Guardia, NY, US

Updated at: 0040 UTC 14 Dec 2017
Potential Impact None Slight Moderate High
Time13/12Z 13/13Z 13/14Z 13/15Z 13/16Z 13/17Z 13/18Z 13/19Z 13/20Z 13/21Z 13/22Z 13/23Z 14/00Z
VIS10 10 10 10 10 10 10 10 10 10 10 10 10
CIG-- -- -- 45 250 55 -- -- -- -- -- -- 250
CoverFEWSCTSCTBKNBKNBKNFEWFEWFEWFEWCLRCLRBKN
FltCatVFRVFRVFRVFRVFRVFRVFRVFRVFRVFRVFRVFRVFR
WX--------------------------
WDir280280280270280300290300290300250260270
WSpd22 16 16 22 28 20 20 30 21 24 19 17 16
WGst27 27 32 33 36 36 35 38 30 34 26 24 26
Raw hourly METARs
KLGA 131151Z 28022G27KT 10SM FEW045 M06/M14 A2953 RMK AO2 PK WND 27031/1116 SLP998 T10561139 11011 21056 53008
KLGA 131251Z 28016G27KT 10SM SCT044 M06/M14 A2954 RMK AO2 PK WND 28032/1159 SLP003 T10561139
KLGA 131351Z 28016G32KT 10SM SCT047 SCT250 M05/M13 A2956 RMK AO2 PK WND 29034/1316 SLP009 T10501133
KLGA 131451Z 27022G33KT 10SM BKN045 BKN250 M04/M13 A2956 RMK AO2 PK WND 27033/1445 SLP010 T10391133 51012
KLGA 131551Z 28028G36KT 10SM FEW028 SCT042 BKN250 M03/M12 A2955 RMK AO2 PK WND 29036/1550 SLP007 T10331117
KLGA 131651Z 30020G36KT 10SM FEW032 BKN055 BKN250 M02/M13 A2955 RMK AO2 PK WND 28037/1557 SLP005 T10221128
KLGA 131751Z 29020G35KT 10SM FEW055 FEW250 M01/M14 A2954 RMK AO2 PK WND 28035/1747 SLP001 T10111139 11006 21056 58008
KLGA 131851Z 30030G38KT 10SM FEW055 FEW250 00/M14 A2956 RMK AO2 PK WND 30041/1841 SLP008 T00001144
KLGA 131951Z 29021G30KT 10SM FEW055 01/M16 A2957 RMK AO2 PK WND 29038/1910 SLP014 T00061156
KLGA 132051Z 30024G34KT 10SM FEW055 00/M14 A2959 RMK AO2 PK WND 29035/2007 SLP021 T00001144 52019
KLGA 132151Z 25019G26KT 10SM CLR M01/M14 A2963 RMK AO2 PK WND 29031/2100 PRESRR SLP032 T10061144
KLGA 132251Z 26017G24KT 10SM CLR M01/M14 A2965 RMK AO2 PK WND 29027/2228 SLP040 T10111139
KLGA 132351Z 27016G26KT 10SM BKN250 M02/M14 A2966 RMK AO2 PK WND 28026/2345 SLP045 T10171139 10006 21017 51024